createdAt,value
2022-11-16T00:02:14.294Z,100347.13
2022-11-16T00:04:42.389Z,100357.63
2022-11-16T00:07:10.340Z,100336.81
2022-11-16T00:09:37.699Z,100353.22
2022-11-16T00:12:08.891Z,100358.41
2022-11-16T00:14:36.833Z,100348.66
2022-11-16T00:17:05.011Z,100352.16
2022-11-16T00:19:32.713Z,100356.47
2022-11-16T00:22:05.589Z,100350.41
2022-11-16T00:24:32.837Z,100328.38
2022-11-16T00:27:00.671Z,100324.03
2022-11-16T00:29:28.977Z,100315.38
2022-11-16T00:31:56.449Z,100318.06
2022-11-16T00:34:24.442Z,100328.53
2022-11-16T00:36:52.231Z,100321.53
2022-11-16T00:39:19.726Z,100309.19
2022-11-16T00:41:48.251Z,100313.53
2022-11-16T00:44:15.808Z,100305.78
2022-11-16T00:46:43.532Z,100295.25
2022-11-16T00:49:10.850Z,100306.69
2022-11-16T00:51:38.807Z,100301.41
2022-11-16T00:54:08.460Z,100299.03
2022-11-16T00:56:37.505Z,100297.25
2022-11-16T00:59:04.886Z,100291.19
2022-11-16T01:01:32.319Z,100293.78
2022-11-16T01:03:59.998Z,100295.78
2022-11-16T01:06:27.824Z,100285.34
2022-11-16T01:08:54.990Z,100286.19
2022-11-16T01:11:40.868Z,100281.81
2022-11-16T01:14:09.240Z,100273.72
2022-11-16T01:16:36.690Z,100267.56
2022-11-16T01:19:05.916Z,100266.75
2022-11-16T01:21:33.880Z,100261.66
2022-11-16T01:24:01.088Z,100265.94
2022-11-16T01:26:29.365Z,100257.38
2022-11-16T01:28:58.649Z,100265.34
2022-11-16T01:31:26.616Z,100267.25
2022-11-16T01:33:55.105Z,100268.13
2022-11-16T01:36:22.824Z,100261.25
2022-11-16T01:38:50.766Z,100259.44
2022-11-16T01:41:24.108Z,100250.72
2022-11-16T01:44:05.243Z,100252.41
2022-11-16T01:46:33.440Z,100248.00
2022-11-16T01:49:16.453Z,100246.25
2022-11-16T01:51:48.375Z,100230.56
2022-11-16T01:54:17.626Z,100233.94
2022-11-16T01:56:49.270Z,100226.03
2022-11-16T01:59:17.512Z,100230.34
2022-11-16T02:01:45.407Z,100225.94
2022-11-16T02:04:13.254Z,100228.50
2022-11-16T02:06:59.042Z,100233.78
2022-11-16T02:10:07.742Z,100232.84
2022-11-16T02:12:38.066Z,100225.78
2022-11-16T02:15:13.870Z,100219.66
2022-11-16T02:18:04.654Z,100217.88
2022-11-16T02:21:00.839Z,100223.28
2022-11-16T02:23:40.442Z,100216.34
2022-11-16T02:26:49.119Z,100205.06
2022-11-16T02:29:37.912Z,100204.22
2022-11-16T02:32:22.989Z,100193.81
2022-11-16T02:34:58.350Z,100192.03
2022-11-16T02:37:30.488Z,100190.34
2022-11-16T02:40:03.334Z,100192.06
2022-11-16T02:42:35.969Z,100184.16
2022-11-16T02:45:08.938Z,100177.13
2022-11-16T02:47:38.562Z,100172.06
2022-11-16T02:50:12.715Z,100175.56
2022-11-16T02:52:39.859Z,100173.03
2022-11-16T02:55:07.608Z,100168.59
2022-11-16T02:57:48.240Z,100168.50
2022-11-16T03:00:20.138Z,100158.78
2022-11-16T03:03:04.252Z,100152.69
2022-11-16T03:05:36.889Z,100148.22
2022-11-16T03:08:14.879Z,100156.06
2022-11-16T03:11:06.048Z,100153.41
2022-11-16T03:13:36.143Z,100156.94
2022-11-16T03:16:13.296Z,100156.06
2022-11-16T03:18:42.272Z,100153.50
2022-11-16T03:21:25.439Z,100157.03
2022-11-16T03:23:54.652Z,100154.44
2022-11-16T03:26:29.216Z,100146.59
2022-11-16T03:29:03.556Z,100143.13
2022-11-16T03:31:39.598Z,100142.25
2022-11-16T03:34:12.817Z,100135.19
2022-11-16T03:36:44.034Z,100124.56
2022-11-16T03:39:17.359Z,100112.41
2022-11-16T03:41:47.641Z,100106.34
2022-11-16T03:44:16.970Z,100097.59
2022-11-16T03:46:45.432Z,100100.22
2022-11-16T03:49:12.715Z,100107.16
2022-11-16T03:51:40.803Z,100108.94
2022-11-16T03:54:07.820Z,100112.44
2022-11-16T03:56:35.511Z,100094.13
2022-11-16T03:59:02.546Z,100089.66
2022-11-16T04:01:29.978Z,100097.66
2022-11-16T04:03:56.985Z,100092.44
2022-11-16T04:06:42.932Z,100082.75
2022-11-16T04:09:29.381Z,100091.56
2022-11-16T04:12:15.773Z,100096.78
2022-11-16T04:15:01.950Z,100096.78
2022-11-16T04:18:08.340Z,100103.94
2022-11-16T04:20:54.571Z,100103.16
2022-11-16T04:23:41.052Z,100097.81
2022-11-16T04:26:10.452Z,100087.25
2022-11-16T04:28:39.836Z,100093.31
2022-11-16T04:31:25.684Z,100084.41
2022-11-16T04:34:12.550Z,100081.75
2022-11-16T04:36:57.957Z,100094.13
2022-11-16T04:39:25.233Z,100084.41
2022-11-16T04:42:10.732Z,100088.75
2022-11-16T04:44:57.317Z,100072.03
2022-11-16T04:47:24.563Z,100060.84
2022-11-16T04:49:53.780Z,100057.47
2022-11-16T04:52:21.355Z,100063.50
2022-11-16T04:54:48.792Z,100060.78
2022-11-16T04:57:16.115Z,100055.47
2022-11-16T04:59:44.083Z,100039.75
2022-11-16T05:02:11.292Z,100038.81
2022-11-16T05:04:41.277Z,100048.53
2022-11-16T05:07:12.075Z,100050.13
2022-11-16T05:09:47.296Z,100045.66
2022-11-16T05:12:19.076Z,100051.75
2022-11-16T05:14:50.447Z,100034.13
2022-11-16T05:17:20.930Z,100032.34
2022-11-16T05:20:08.044Z,100027.91
2022-11-16T05:22:35.634Z,100019.84
2022-11-16T05:25:04.735Z,100020.75
2022-11-16T05:27:31.816Z,100026.00
2022-11-16T05:29:59.393Z,100023.31
2022-11-16T05:32:31.233Z,100020.47
2022-11-16T05:34:58.717Z,100023.19
2022-11-16T05:37:30.260Z,100025.78
2022-11-16T05:40:00.138Z,100032.75
2022-11-16T05:42:27.925Z,100028.47
2022-11-16T05:47:38.123Z,100015.31
2022-11-16T05:50:10.382Z,100013.56
2022-11-16T05:52:37.447Z,100016.13
2022-11-16T05:55:05.502Z,100004.72
2022-11-16T05:57:32.544Z,100013.47
2022-11-16T05:59:59.864Z,100026.25
2022-11-16T06:02:27.501Z,100027.25
2022-11-16T06:04:54.792Z,100026.22
2022-11-16T06:07:21.910Z,100022.66
2022-11-16T06:09:49.410Z,100033.31
2022-11-16T06:12:16.573Z,100014.16
2022-11-16T06:14:43.939Z,100010.69
2022-11-16T06:17:14.493Z,100023.72
2022-11-16T06:19:44.711Z,100018.41
2022-11-16T06:22:12.017Z,100012.31
2022-11-16T06:24:39.325Z,100011.56
2022-11-16T06:27:06.387Z,100009.00
2022-11-16T06:29:38.326Z,100005.41
2022-11-16T06:32:07.521Z,100000.19
2022-11-16T06:34:47.248Z,99990.66
2022-11-16T06:37:14.382Z,99975.75
2022-11-16T06:39:44.546Z,99993.94
2022-11-16T06:42:11.719Z,99999.00
2022-11-16T06:44:47.373Z,99996.16
2022-11-16T06:47:14.325Z,100003.19
2022-11-16T06:49:43.473Z,99994.34
2022-11-16T06:52:10.707Z,99989.00
2022-11-16T06:54:46.457Z,99974.88
2022-11-16T06:57:30.467Z,99979.19
2022-11-16T07:02:40.770Z,99964.97
2022-11-16T07:05:09.454Z,99972.81
2022-11-16T07:07:36.850Z,99971.19
2022-11-16T07:10:08.052Z,99968.50
2022-11-16T07:12:36.379Z,99977.88
2022-11-16T07:15:07.905Z,99980.34
2022-11-16T07:17:45.096Z,99963.69
2022-11-16T07:20:16.310Z,99960.31
2022-11-16T07:22:43.329Z,99962.66
2022-11-16T07:25:12.697Z,99956.44
2022-11-16T07:27:39.801Z,99955.38
2022-11-16T07:30:16.900Z,99953.72
2022-11-16T07:32:45.110Z,99948.25
2022-11-16T07:35:18.185Z,99951.63
2022-11-16T07:37:50.151Z,99944.50
2022-11-16T07:40:17.673Z,99943.69
2022-11-16T07:42:48.903Z,99952.31
2022-11-16T07:45:18.610Z,99920.19
2022-11-16T07:47:57.499Z,99944.66
2022-11-16T07:50:28.055Z,99937.00
2022-11-16T07:52:56.059Z,99944.19
2022-11-16T07:55:34.686Z,99940.53
2022-11-16T07:58:08.916Z,99945.81
2022-11-16T08:00:37.092Z,99940.44
2022-11-16T08:03:06.397Z,99924.47
2022-11-16T08:05:33.939Z,99920.03
2022-11-16T08:08:01.221Z,99909.47
2022-11-16T08:10:30.360Z,99910.28
2022-11-16T08:12:57.641Z,99911.94
2022-11-16T08:15:25.931Z,99917.06
2022-11-16T08:17:59.265Z,99920.50
2022-11-16T08:20:28.598Z,99915.09
2022-11-16T08:22:59.642Z,99922.56
2022-11-16T08:25:31.148Z,99919.78
2022-11-16T08:27:58.306Z,99925.06
2022-11-16T08:30:25.716Z,99917.81
2022-11-16T08:32:53.679Z,99910.53
2022-11-16T08:35:24.211Z,99893.00
2022-11-16T08:43:34.236Z,99903.34
2022-11-16T08:46:05.965Z,99906.84
2022-11-16T08:48:34.717Z,99910.59
2022-11-16T08:53:58.610Z,99906.38
2022-11-16T08:56:30.321Z,99909.09
2022-11-16T08:58:59.837Z,99893.59
2022-11-16T09:01:29.429Z,99902.53
2022-11-16T09:03:56.979Z,99889.41
2022-11-16T09:06:26.456Z,99885.81
2022-11-16T09:08:53.457Z,99893.28
2022-11-16T09:11:22.736Z,99889.59
2022-11-16T09:13:52.140Z,99889.69
2022-11-16T09:16:21.124Z,99885.94
2022-11-16T09:18:52.084Z,99877.19
2022-11-16T09:21:22.432Z,99870.97
2022-11-16T09:23:50.218Z,99873.59
2022-11-16T09:26:21.246Z,99866.72
2022-11-16T09:28:56.334Z,99871.63
2022-11-16T09:31:24.758Z,99879.41
2022-11-16T09:33:51.801Z,99859.09
2022-11-16T09:36:20.749Z,99847.69
2022-11-16T09:39:23.805Z,99845.03
2022-11-16T09:41:52.205Z,99839.56
2022-11-16T09:44:31.485Z,99835.97
2022-11-16T09:47:01.322Z,99831.63
2022-11-16T09:49:45.025Z,99832.63
2022-11-16T09:52:21.202Z,99830.78
2022-11-16T09:54:49.863Z,99829.84
2022-11-16T09:57:33.659Z,99833.91
2022-11-16T10:00:13.774Z,99829.44
2022-11-16T10:02:47.901Z,99819.03
2022-11-16T10:06:10.620Z,99799.91
2022-11-16T10:08:46.394Z,99821.63
2022-11-16T10:11:52.582Z,99811.09
2022-11-16T10:14:41.205Z,99813.13
2022-11-16T10:17:56.362Z,99807.97
2022-11-16T10:20:47.809Z,99810.50
2022-11-16T10:23:28.753Z,99811.28
2022-11-16T10:30:01.598Z,99797.09
2022-11-16T10:32:32.986Z,99795.53
2022-11-16T10:35:10.502Z,99777.94
2022-11-16T10:37:59.971Z,99785.66
2022-11-16T10:40:36.126Z,99793.47
2022-11-16T10:43:13.885Z,99788.19
2022-11-16T10:45:47.487Z,99786.47
2022-11-16T10:48:37.156Z,99783.63
2022-11-16T10:51:05.527Z,99779.38
2022-11-16T10:53:37.084Z,99772.34
2022-11-16T10:56:37.294Z,99765.00
2022-11-16T10:59:09.559Z,99754.44
2022-11-16T11:01:51.579Z,99757.81
2022-11-16T11:04:28.774Z,99749.94
2022-11-16T11:07:40.295Z,99740.38
2022-11-16T11:10:39.894Z,99740.28
2022-11-16T11:13:11.422Z,99754.13
2022-11-16T11:15:45.976Z,99745.31
2022-11-16T11:18:27.178Z,99757.66
2022-11-16T11:24:57.992Z,99769.25
2022-11-16T11:27:34.216Z,99757.94
2022-11-16T11:30:02.307Z,99759.72
2022-11-16T11:32:40.240Z,99757.00
2022-11-16T11:35:23.802Z,99750.84
2022-11-16T11:37:55.845Z,99735.94
2022-11-16T11:43:23.973Z,99745.44
2022-11-16T11:46:06.363Z,99740.09
2022-11-16T11:48:48.116Z,99718.16
2022-11-16T11:51:35.258Z,99729.91
2022-11-16T11:54:05.415Z,99723.19
2022-11-16T11:56:34.306Z,99730.06
2022-11-16T11:59:05.084Z,99727.00
2022-11-16T12:01:56.638Z,99721.13
2022-11-16T12:05:04.230Z,99708.50
2022-11-16T12:08:02.079Z,99711.81
2022-11-16T12:10:35.188Z,99706.38
2022-11-16T12:13:25.814Z,99709.91
2022-11-16T12:16:13.439Z,99702.03
2022-11-16T12:19:06.942Z,99710.09
2022-11-16T12:21:49.264Z,99717.09
2022-11-16T12:24:40.346Z,99706.38
2022-11-16T12:27:41.211Z,99698.44
2022-11-16T12:30:18.472Z,99701.09
2022-11-16T12:33:05.184Z,99703.63
2022-11-16T12:35:45.628Z,99693.97
2022-11-16T12:38:30.180Z,99701.09
2022-11-16T12:41:35.077Z,99698.44
2022-11-16T12:44:11.942Z,99700.25
2022-11-16T12:46:39.708Z,99705.53
2022-11-16T12:49:34.814Z,99702.88
2022-11-16T12:52:27.933Z,99706.28
2022-11-16T12:55:26.288Z,99701.81
2022-11-16T12:58:24.849Z,99690.53
2022-11-16T13:01:10.854Z,99697.28
2022-11-16T13:03:50.173Z,99700.72
2022-11-16T13:06:21.228Z,99695.81
2022-11-16T13:12:00.042Z,99695.22
2022-11-16T13:14:38.689Z,99714.47
2022-11-16T13:17:22.964Z,99707.66
2022-11-16T13:20:15.538Z,99706.59
2022-11-16T13:22:53.654Z,99715.53
2022-11-16T13:25:31.894Z,99700.72
2022-11-16T13:28:23.513Z,99701.56
2022-11-16T13:31:14.700Z,99698.66
2022-11-16T13:33:51.230Z,99677.88
2022-11-16T13:36:37.452Z,99696.22
2022-11-16T13:39:08.172Z,99683.38
2022-11-16T13:41:40.581Z,99690.25
2022-11-16T13:44:21.081Z,99695.47
2022-11-16T13:46:56.314Z,99687.50
2022-11-16T13:49:33.294Z,99679.47
2022-11-16T13:52:40.406Z,99688.19
2022-11-16T13:55:41.415Z,99681.06
2022-11-16T13:58:39.335Z,99676.78
2022-11-16T14:01:18.966Z,99673.28
2022-11-16T14:03:52.223Z,99672.34
2022-11-16T14:12:40.417Z,99675.88
2022-11-16T14:15:24.502Z,99684.50
2022-11-16T14:17:58.339Z,99675.88
2022-11-16T14:20:37.810Z,99668.63
2022-11-16T14:23:20.569Z,99668.63
2022-11-16T14:25:57.004Z,99685.31
2022-11-16T14:28:52.501Z,99674.00
2022-11-16T14:31:30.053Z,99676.78
2022-11-16T14:34:00.456Z,99675.13
2022-11-16T14:36:49.826Z,99689.94
2022-11-16T14:39:28.620Z,99684.66
2022-11-16T14:42:03.742Z,99669.97
2022-11-16T14:44:37.954Z,99682.22
2022-11-16T14:47:29.431Z,99682.06
2022-11-16T14:49:57.168Z,99675.13
2022-11-16T14:52:30.703Z,99681.28
2022-11-16T14:55:03.878Z,99682.91
2022-11-16T14:57:31.502Z,99671.63
2022-11-16T15:03:12.495Z,99680.25
2022-11-16T15:05:39.773Z,99680.47
2022-11-16T15:08:17.496Z,99686.81
2022-11-16T15:10:52.625Z,99685.28
2022-11-16T15:13:24.840Z,99685.06
2022-11-16T15:16:26.038Z,99692.03
2022-11-16T15:19:02.472Z,99691.94
2022-11-16T15:21:30.030Z,99688.25
2022-11-16T15:26:45.737Z,99683.16
2022-11-16T15:29:33.645Z,99687.44
2022-11-16T15:32:02.202Z,99688.34
2022-11-16T15:34:31.663Z,99693.00
2022-11-16T15:37:03.163Z,99690.34
2022-11-16T15:39:34.510Z,99686.06
2022-11-16T15:42:04.882Z,99679.78
2022-11-16T15:44:33.959Z,99678.88
2022-11-16T15:47:04.000Z,99680.66
2022-11-16T15:49:36.367Z,99691.16
2022-11-16T15:52:07.854Z,99695.53
2022-11-16T15:54:55.331Z,99690.88
2022-11-16T15:57:24.153Z,99694.22
2022-11-16T15:59:55.075Z,99695.91
2022-11-16T16:02:28.189Z,99690.63
2022-11-16T16:04:56.279Z,99677.50
2022-11-16T16:07:45.871Z,99680.00
2022-11-16T16:10:19.739Z,99682.84
2022-11-16T16:12:51.767Z,99685.94
2022-11-16T16:15:36.234Z,99677.34
2022-11-16T16:18:16.056Z,99685.94
2022-11-16T16:20:48.577Z,99674.75
2022-11-16T16:23:16.913Z,99671.47
2022-11-16T16:25:50.062Z,99681.34
2022-11-16T16:28:17.819Z,99677.91
2022-11-16T16:30:59.721Z,99675.25
2022-11-16T16:33:30.379Z,99670.66
2022-11-16T16:35:57.430Z,99678.44
2022-11-16T16:38:26.415Z,99681.88
2022-11-16T16:43:37.614Z,99665.03
2022-11-16T16:46:07.752Z,99672.91
2022-11-16T16:48:41.747Z,99660.75
2022-11-16T16:51:12.970Z,99664.97
2022-11-16T16:53:45.196Z,99667.63
2022-11-16T16:56:19.690Z,99672.78
2022-11-16T16:58:47.254Z,99672.91
2022-11-16T17:01:19.676Z,99674.50
2022-11-16T17:04:01.651Z,99673.53
2022-11-16T17:06:32.765Z,99666.56
2022-11-16T17:08:59.961Z,99662.03
2022-11-16T17:11:27.422Z,99661.13
2022-11-16T17:13:54.986Z,99662.72
2022-11-16T17:16:23.178Z,99659.97
2022-11-16T17:18:56.811Z,99655.69
2022-11-16T17:21:24.346Z,99670.44
2022-11-16T17:23:51.476Z,99658.28
2022-11-16T17:26:20.431Z,99667.06
2022-11-16T17:28:48.609Z,99672.13
2022-11-16T17:31:18.971Z,99659.97
2022-11-16T17:33:46.842Z,99658.78
2022-11-16T17:36:14.882Z,99670.94
2022-11-16T17:38:42.230Z,99670.00
2022-11-16T17:41:39.840Z,99665.47
2022-11-16T17:44:07.341Z,99659.53
2022-11-16T17:46:35.209Z,99661.44
2022-11-16T17:49:02.469Z,99658.78
2022-11-16T17:51:43.505Z,99654.47
2022-11-16T17:54:13.095Z,99658.78
2022-11-16T17:59:30.864Z,99659.66
2022-11-16T18:02:00.804Z,99658.00
2022-11-16T18:04:28.021Z,99666.03
2022-11-16T18:06:57.330Z,99681.56
2022-11-16T18:09:26.430Z,99682.50
2022-11-16T18:11:54.242Z,99667.78
2022-11-16T18:14:30.702Z,99681.53
2022-11-16T18:17:07.800Z,99652.72
2022-11-16T18:19:34.953Z,99662.22
2022-11-16T18:22:13.337Z,99654.56
2022-11-16T18:24:40.622Z,99662.41
2022-11-16T18:29:49.552Z,99662.50
2022-11-16T18:32:20.300Z,99659.91
2022-11-16T18:34:49.095Z,99647.81
2022-11-16T18:37:18.166Z,99642.47
2022-11-16T18:39:45.930Z,99649.38
2022-11-16T18:42:16.789Z,99642.66
2022-11-16T18:44:48.338Z,99655.66
2022-11-16T18:47:15.789Z,99655.00
2022-11-16T18:49:43.186Z,99669.97
2022-11-16T18:52:10.972Z,99671.03
2022-11-16T18:54:38.347Z,99656.09
2022-11-16T18:59:47.700Z,99672.81
2022-11-16T19:02:16.452Z,99666.81
2022-11-16T19:04:44.351Z,99671.34
2022-11-16T19:10:01.912Z,99669.00
2022-11-16T19:30:16.445Z,99659.13
2022-11-16T19:32:44.827Z,99660.22
2022-11-16T19:35:47.573Z,99664.94
2022-11-16T19:38:34.675Z,99636.75
2022-11-16T19:41:02.550Z,99631.91
2022-11-16T19:43:32.151Z,99629.41
2022-11-16T19:46:23.720Z,99621.06
2022-11-16T19:48:59.757Z,99638.50
2022-11-16T19:51:33.990Z,99617.69
2022-11-16T19:54:11.971Z,99623.84
2022-11-16T19:56:42.324Z,99619.78
2022-11-16T19:59:13.107Z,99625.34
2022-11-16T20:01:43.438Z,99630.09
2022-11-16T20:04:10.690Z,99621.50
2022-11-16T20:06:39.072Z,99629.28
2022-11-16T20:09:12.418Z,99608.63
2022-11-16T20:11:43.460Z,99625.28
2022-11-16T20:14:12.179Z,99621.16
2022-11-16T20:16:41.552Z,99632.66
2022-11-16T20:19:19.224Z,99633.09
2022-11-16T20:21:57.802Z,99623.78
2022-11-16T20:24:32.094Z,99625.03
2022-11-16T20:27:02.338Z,99614.75
2022-11-16T20:29:33.956Z,99636.56
2022-11-16T20:32:09.697Z,99636.97
2022-11-16T20:34:42.844Z,99645.66
2022-11-16T20:37:17.848Z,99636.19
2022-11-16T20:39:52.710Z,99625.94
2022-11-16T20:42:24.328Z,99631.00
2022-11-16T20:44:56.574Z,99637.22
2022-11-16T20:47:24.159Z,99631.19
2022-11-16T20:49:53.146Z,99626.31
2022-11-16T20:52:20.814Z,99619.31
2022-11-16T20:54:47.873Z,99625.38
2022-11-16T20:57:15.353Z,99635.66
2022-11-16T20:59:42.629Z,99637.47
2022-11-16T21:02:11.668Z,99618.53
2022-11-16T21:04:38.860Z,99613.38
2022-11-16T21:07:06.513Z,99608.22
2022-11-16T21:09:53.713Z,99600.59
2022-11-16T21:12:42.772Z,99608.31
2022-11-16T21:15:28.159Z,99591.31
2022-11-16T21:17:55.536Z,99600.03
2022-11-16T21:20:29.698Z,99602.88
2022-11-16T21:22:57.146Z,99607.31
2022-11-16T21:25:24.292Z,99595.25
2022-11-16T21:27:52.265Z,99590.84
2022-11-16T21:30:20.047Z,99583.25
2022-11-16T21:32:47.379Z,99592.19
2022-11-16T21:35:16.241Z,99594.94
2022-11-16T21:37:45.332Z,99594.38
2022-11-16T21:40:53.751Z,99596.03
2022-11-16T21:43:21.390Z,99589.13
2022-11-16T21:45:49.986Z,99594.19
2022-11-16T21:48:17.798Z,99587.50
2022-11-16T21:50:44.837Z,99591.09
2022-11-16T21:53:12.163Z,99589.47
2022-11-16T21:55:48.679Z,99601.66
2022-11-16T21:58:15.989Z,99586.97
2022-11-16T22:00:43.227Z,99584.50
2022-11-16T22:03:12.138Z,99593.16
2022-11-16T22:06:00.320Z,99586.38
2022-11-16T22:08:29.944Z,99590.00
2022-11-16T22:10:59.235Z,99563.31
2022-11-16T22:13:26.624Z,99576.66
2022-11-16T22:15:54.083Z,99580.41
2022-11-16T22:18:21.051Z,99572.09
2022-11-16T22:20:50.201Z,99584.56
2022-11-16T22:23:21.550Z,99600.34
2022-11-16T22:25:53.426Z,99598.75
2022-11-16T22:28:22.023Z,99603.31
2022-11-16T22:30:51.927Z,99605.97
2022-11-16T22:33:19.552Z,99608.72
2022-11-16T22:35:47.350Z,99602.69
2022-11-16T22:38:16.023Z,99612.34
2022-11-16T22:40:57.087Z,99607.47
2022-11-16T22:43:26.909Z,99598.06
2022-11-16T22:46:01.378Z,99615.28
2022-11-16T22:48:34.483Z,99614.38
2022-11-16T22:51:26.422Z,99617.06
2022-11-16T22:54:01.591Z,99610.91
2022-11-16T22:56:31.066Z,99622.97
2022-11-16T22:58:58.668Z,99614.91
2022-11-16T23:01:26.149Z,99599.06
2022-11-16T23:03:55.634Z,99605.81
2022-11-16T23:06:23.124Z,99605.56
2022-11-16T23:08:51.292Z,99609.03
2022-11-16T23:11:40.745Z,99606.22
2022-11-16T23:14:30.332Z,99605.34
2022-11-16T23:16:59.331Z,99613.88
2022-11-16T23:19:46.313Z,99608.63
2022-11-16T23:22:35.395Z,99612.06
2022-11-16T23:25:22.227Z,99613.66
2022-11-16T23:27:55.291Z,99621.41
2022-11-16T23:30:22.647Z,99610.91
2022-11-16T23:32:50.110Z,99616.06
2022-11-16T23:35:17.833Z,99603.88
2022-11-16T23:37:52.364Z,99610.63
2022-11-16T23:40:20.160Z,99608.78
2022-11-16T23:43:05.968Z,99611.38
2022-11-16T23:45:33.360Z,99596.28
2022-11-16T23:48:01.273Z,99609.22
2022-11-16T23:50:28.479Z,99604.75
2022-11-16T23:52:56.186Z,99598.31
2022-11-16T23:55:23.296Z,99606.03
2022-11-16T23:57:51.414Z,99608.59
